Terminal Aerodrome Forecast
Issued by NWS

Home | Current Version | Previous Version | Text Only | Print | Product List | Glossary On
Versions: 1 2 3 4 5 6 7 8 9 10 11 12 13 14 15 16 17 18 19 20 21
151
FTUS41 KPBZ 261138
TAFDUJ
TAF
KDUJ 261138Z 2612/2712 10008KT P6SM OVC008
     FM261600 14012G22KT P6SM OVC015
     FM262100 15012G22KT 6SM -SHRA OVC015
     FM270800 16010KT P6SM VCSH OVC008=

USA.gov is the U.S. government's official web portal to all federal, state and local government web resources and services.